Reese, Ohio
Current Conditions -  °F | °C
As of 6:55 PM on Wednesday 26 Nov 2014 (Local Time) from KLCK Reporting Station
Overcast Overcast  
Wind Chill: 30°   Ceiling: 3400
Heat Index: 35°   Visibility: 10mi
Dew Point: 26°   Wind: 5mph
Humidity: 71%   Direction: 310°NW
Pressure: 30.04"   Gusts: NA
Location:  39.8938°N, 82.9624°W
Report Text: KLCK 262355Z AUTO 31004KT 10SM OVC034 01/M03 A3004 RMK AO2 T00141034
Loading
Personal Weather Stations






























Interactive Weather Map New forecast layout! Learn more

10-Day Weather Forecast

Advertisements
Track Severe Weather on mobile